sensor_id;sensor_type;location;lat;lon;timestamp;temperature;humidity
16102;DHT22;56411;52.964;10.540;2022-07-01T00:00:45;22.50;99.90
16102;DHT22;56411;52.964;10.540;2022-07-01T00:03:17;22.50;99.90
16102;DHT22;56411;52.964;10.540;2022-07-01T00:05:44;22.50;99.90
16102;DHT22;56411;52.964;10.540;2022-07-01T00:08:14;22.40;99.90
16102;DHT22;56411;52.964;10.540;2022-07-01T00:10:45;22.30;99.90
16102;DHT22;56411;52.964;10.540;2022-07-01T00:13:18;22.30;99.90
16102;DHT22;56411;52.964;10.540;2022-07-01T00:15:45;22.30;99.90
16102;DHT22;56411;52.964;10.540;2022-07-01T00:18:24;22.30;99.90
16102;DHT22;56411;52.964;10.540;2022-07-01T00:20:51;22.30;99.90
16102;DHT22;56411;52.964;10.540;2022-07-01T00:23:18;22.30;99.90
16102;DHT22;56411;52.964;10.540;2022-07-01T00:25:47;22.20;99.90
16102;DHT22;56411;52.964;10.540;2022-07-01T00:28:14;22.20;99.90
16102;DHT22;56411;52.964;10.540;2022-07-01T00:30:41;22.20;99.90
16102;DHT22;56411;52.964;10.540;2022-07-01T00:33:08;22.10;99.90
16102;DHT22;56411;52.964;10.540;2022-07-01T00:35:35;22.10;99.90
16102;DHT22;56411;52.964;10.540;2022-07-01T00:38:02;22.00;99.90
16102;DHT22;56411;52.964;10.540;2022-07-01T00:40:29;21.90;99.90
16102;DHT22;56411;52.964;10.540;2022-07-01T00:42:58;21.90;99.90
16102;DHT22;56411;52.964;10.540;2022-07-01T00:45:25;21.80;99.90
16102;DHT22;56411;52.964;10.540;2022-07-01T00:47:52;21.80;99.90
16102;DHT22;56411;52.964;10.540;2022-07-01T00:50:19;21.80;99.90
16102;DHT22;56411;52.964;10.540;2022-07-01T00:52:46;21.80;99.90
16102;DHT22;56411;52.964;10.540;2022-07-01T00:55:14;21.70;99.90
16102;DHT22;56411;52.964;10.540;2022-07-01T00:57:43;21.60;99.90
16102;DHT22;56411;52.964;10.540;2022-07-01T01:00:14;21.60;99.90
16102;DHT22;56411;52.964;10.540;2022-07-01T01:02:42;21.50;99.90
16102;DHT22;56411;52.964;10.540;2022-07-01T01:05:09;21.50;99.90
16102;DHT22;56411;52.964;10.540;2022-07-01T01:07:36;21.50;99.90
16102;DHT22;56411;52.964;10.540;2022-07-01T01:10:04;21.50;99.90
16102;DHT22;56411;52.964;10.540;2022-07-01T01:12:32;21.50;99.90
16102;DHT22;56411;52.964;10.540;2022-07-01T01:14:59;21.40;99.90
16102;DHT22;56411;52.964;10.540;2022-07-01T01:17:28;21.40;99.90
16102;DHT22;56411;52.964;10.540;2022-07-01T01:19:55;21.40;99.90
16102;DHT22;56411;52.964;10.540;2022-07-01T01:22:23;21.30;99.90
16102;DHT22;56411;52.964;10.540;2022-07-01T01:24:50;21.30;99.90
16102;DHT22;56411;52.964;10.540;2022-07-01T01:27:17;21.30;99.90
16102;DHT22;56411;52.964;10.540;2022-07-01T01:29:44;21.20;99.90
16102;DHT22;56411;52.964;10.540;2022-07-01T01:32:11;21.20;99.90
16102;DHT22;56411;52.964;10.540;2022-07-01T01:34:38;21.20;99.90
16102;DHT22;56411;52.964;10.540;2022-07-01T01:37:07;21.10;99.90
16102;DHT22;56411;52.964;10.540;2022-07-01T01:39:35;21.10;99.90
16102;DHT22;56411;52.964;10.540;2022-07-01T01:42:04;21.10;99.90
16102;DHT22;56411;52.964;10.540;2022-07-01T01:44:31;21.10;99.90
16102;DHT22;56411;52.964;10.540;2022-07-01T01:46:58;21.00;99.90
16102;DHT22;56411;52.964;10.540;2022-07-01T01:49:25;21.00;99.90
16102;DHT22;56411;52.964;10.540;2022-07-01T01:51:52;21.00;99.90
16102;DHT22;56411;52.964;10.540;2022-07-01T01:54:19;20.70;99.90
16102;DHT22;56411;52.964;10.540;2022-07-01T01:56:48;20.50;99.90
16102;DHT22;56411;52.964;10.540;2022-07-01T01:59:15;20.50;99.90
16102;DHT22;56411;52.964;10.540;2022-07-01T02:01:42;20.40;99.90
16102;DHT22;56411;52.964;10.540;2022-07-01T02:04:09;20.40;99.90
16102;DHT22;56411;52.964;10.540;2022-07-01T02:06:36;20.30;99.90
16102;DHT22;56411;52.964;10.540;2022-07-01T02:09:06;20.30;99.90
16102;DHT22;56411;52.964;10.540;2022-07-01T02:11:34;20.30;99.90
16102;DHT22;56411;52.964;10.540;2022-07-01T02:14:03;20.20;99.90
16102;DHT22;56411;52.964;10.540;2022-07-01T02:16:29;20.20;99.90
16102;DHT22;56411;52.964;10.540;2022-07-01T02:18:56;20.20;99.90
16102;DHT22;56411;52.964;10.540;2022-07-01T02:21:24;20.10;99.90
16102;DHT22;56411;52.964;10.540;2022-07-01T02:23:50;20.10;99.90
16102;DHT22;56411;52.964;10.540;2022-07-01T02:26:19;20.00;99.90
16102;DHT22;56411;52.964;10.540;2022-07-01T02:28:46;20.00;99.90
16102;DHT22;56411;52.964;10.540;2022-07-01T02:31:14;19.90;99.90
16102;DHT22;56411;52.964;10.540;2022-07-01T02:33:41;19.90;99.90
16102;DHT22;56411;52.964;10.540;2022-07-01T02:36:08;19.80;99.90
16102;DHT22;56411;52.964;10.540;2022-07-01T02:38:35;19.70;99.90
16102;DHT22;56411;52.964;10.540;2022-07-01T02:41:02;19.70;99.90
16102;DHT22;56411;52.964;10.540;2022-07-01T02:43:29;19.60;99.90
16102;DHT22;56411;52.964;10.540;2022-07-01T02:45:56;19.60;99.90
16102;DHT22;56411;52.964;10.540;2022-07-01T02:48:25;19.50;99.90
16102;DHT22;56411;52.964;10.540;2022-07-01T02:50:52;19.50;99.90
16102;DHT22;56411;52.964;10.540;2022-07-01T02:53:19;19.40;99.90
16102;DHT22;56411;52.964;10.540;2022-07-01T02:55:47;19.40;99.90
16102;DHT22;56411;52.964;10.540;2022-07-01T02:58:14;19.40;99.90
16102;DHT22;56411;52.964;10.540;2022-07-01T03:00:41;19.40;99.90
16102;DHT22;56411;52.964;10.540;2022-07-01T03:03:09;19.40;99.90
16102;DHT22;56411;52.964;10.540;2022-07-01T03:05:37;19.40;99.90
16102;DHT22;56411;52.964;10.540;2022-07-01T03:08:04;19.50;99.90
16102;DHT22;56411;52.964;10.540;2022-07-01T03:10:31;19.50;99.90
16102;DHT22;56411;52.964;10.540;2022-07-01T03:12:58;19.50;99.90
16102;DHT22;56411;52.964;10.540;2022-07-01T03:15:27;19.40;99.90
16102;DHT22;56411;52.964;10.540;2022-07-01T03:17:54;19.40;99.90
16102;DHT22;56411;52.964;10.540;2022-07-01T03:20:21;19.50;99.90
16102;DHT22;56411;52.964;10.540;2022-07-01T03:22:50;19.50;99.90
16102;DHT22;56411;52.964;10.540;2022-07-01T03:25:17;19.50;99.90
16102;DHT22;56411;52.964;10.540;2022-07-01T03:27:44;19.50;99.90
16102;DHT22;56411;52.964;10.540;2022-07-01T03:30:14;19.50;99.90
16102;DHT22;56411;52.964;10.540;2022-07-01T03:32:41;19.50;99.90
16102;DHT22;56411;52.964;10.540;2022-07-01T03:35:09;19.50;99.90
16102;DHT22;56411;52.964;10.540;2022-07-01T03:37:56;19.50;99.90
16102;DHT22;56411;52.964;10.540;2022-07-01T03:40:23;19.50;99.90
16102;DHT22;56411;52.964;10.540;2022-07-01T03:42:50;19.50;99.90
16102;DHT22;56411;52.964;10.540;2022-07-01T03:45:17;19.40;99.90
16102;DHT22;56411;52.964;10.540;2022-07-01T03:47:47;19.40;99.90
16102;DHT22;56411;52.964;10.540;2022-07-01T03:50:14;19.30;99.90
16102;DHT22;56411;52.964;10.540;2022-07-01T03:52:41;19.30;99.90
16102;DHT22;56411;52.964;10.540;2022-07-01T03:55:10;19.00;99.90
16102;DHT22;56411;52.964;10.540;2022-07-01T03:57:36;18.90;99.90
16102;DHT22;56411;52.964;10.540;2022-07-01T04:00:05;18.70;99.90
16102;DHT22;56411;52.964;10.540;2022-07-01T04:02:32;18.40;99.90
16102;DHT22;56411;52.964;10.540;2022-07-01T04:04:59;17.90;99.90
16102;DHT22;56411;52.964;10.540;2022-07-01T04:07:26;17.60;99.90
16102;DHT22;56411;52.964;10.540;2022-07-01T04:09:53;17.50;99.90
16102;DHT22;56411;52.964;10.540;2022-07-01T04:12:22;17.50;99.90
16102;DHT22;56411;52.964;10.540;2022-07-01T04:14:49;17.40;99.90
16102;DHT22;56411;52.964;10.540;2022-07-01T04:17:16;17.50;99.90
16102;DHT22;56411;52.964;10.540;2022-07-01T04:19:43;17.50;99.90
16102;DHT22;56411;52.964;10.540;2022-07-01T04:22:10;17.40;99.90
16102;DHT22;56411;52.964;10.540;2022-07-01T04:24:54;17.30;99.90
16102;DHT22;56411;52.964;10.540;2022-07-01T04:27:23;17.30;99.90
16102;DHT22;56411;52.964;10.540;2022-07-01T04:29:50;17.20;99.90
16102;DHT22;56411;52.964;10.540;2022-07-01T04:32:17;17.20;99.90
16102;DHT22;56411;52.964;10.540;2022-07-01T04:34:44;17.20;99.90
16102;DHT22;56411;52.964;10.540;2022-07-01T04:37:11;17.10;99.90
16102;DHT22;56411;52.964;10.540;2022-07-01T04:39:38;17.10;99.90
16102;DHT22;56411;52.964;10.540;2022-07-01T04:42:05;17.10;99.90
16102;DHT22;56411;52.964;10.540;2022-07-01T04:44:34;17.10;99.90
16102;DHT22;56411;52.964;10.540;2022-07-01T04:47:03;17.10;99.90
16102;DHT22;56411;52.964;10.540;2022-07-01T04:49:30;17.00;99.90
16102;DHT22;56411;52.964;10.540;2022-07-01T04:51:59;17.00;99.90
16102;DHT22;56411;52.964;10.540;2022-07-01T04:54:26;16.90;99.90
16102;DHT22;56411;52.964;10.540;2022-07-01T04:56:53;16.90;99.90
16102;DHT22;56411;52.964;10.540;2022-07-01T04:59:21;16.90;99.90
16102;DHT22;56411;52.964;10.540;2022-07-01T05:01:49;16.90;99.90
16102;DHT22;56411;52.964;10.540;2022-07-01T05:04:17;16.80;99.90
16102;DHT22;56411;52.964;10.540;2022-07-01T05:06:44;16.80;99.90
16102;DHT22;56411;52.964;10.540;2022-07-01T05:09:11;16.80;99.90
16102;DHT22;56411;52.964;10.540;2022-07-01T05:11:39;16.80;99.90
16102;DHT22;56411;52.964;10.540;2022-07-01T05:14:06;16.70;99.90
16102;DHT22;56411;52.964;10.540;2022-07-01T05:16:33;16.70;99.90
16102;DHT22;56411;52.964;10.540;2022-07-01T05:19:02;16.40;99.90
16102;DHT22;56411;52.964;10.540;2022-07-01T05:21:47;16.20;99.90
16102;DHT22;56411;52.964;10.540;2022-07-01T05:24:24;16.20;99.90
16102;DHT22;56411;52.964;10.540;2022-07-01T05:26:53;16.20;99.90
16102;DHT22;56411;52.964;10.540;2022-07-01T05:29:20;16.20;99.90
16102;DHT22;56411;52.964;10.540;2022-07-01T05:31:47;16.20;99.90
16102;DHT22;56411;52.964;10.540;2022-07-01T05:34:16;16.20;99.90
16102;DHT22;56411;52.964;10.540;2022-07-01T05:36:43;16.30;99.90
16102;DHT22;56411;52.964;10.540;2022-07-01T05:39:10;16.30;99.90
16102;DHT22;56411;52.964;10.540;2022-07-01T05:41:37;16.20;99.90
16102;DHT22;56411;52.964;10.540;2022-07-01T05:44:04;16.30;99.90
16102;DHT22;56411;52.964;10.540;2022-07-01T05:46:31;16.30;99.90
16102;DHT22;56411;52.964;10.540;2022-07-01T05:48:58;16.30;99.90
16102;DHT22;56411;52.964;10.540;2022-07-01T05:51:26;16.30;99.90
16102;DHT22;56411;52.964;10.540;2022-07-01T05:53:54;16.30;99.90
16102;DHT22;56411;52.964;10.540;2022-07-01T05:56:21;16.30;99.90
16102;DHT22;56411;52.964;10.540;2022-07-01T05:58:48;16.40;99.90
16102;DHT22;56411;52.964;10.540;2022-07-01T06:01:16;16.40;99.90
16102;DHT22;56411;52.964;10.540;2022-07-01T06:03:43;16.40;99.90
16102;DHT22;56411;52.964;10.540;2022-07-01T06:06:11;16.40;99.90
16102;DHT22;56411;52.964;10.540;2022-07-01T06:08:40;16.40;99.90
16102;DHT22;56411;52.964;10.540;2022-07-01T06:11:07;16.50;99.90
16102;DHT22;56411;52.964;10.540;2022-07-01T06:13:35;16.50;99.90
16102;DHT22;56411;52.964;10.540;2022-07-01T06:16:03;16.40;99.90
16102;DHT22;56411;52.964;10.540;2022-07-01T06:18:31;16.40;99.90
16102;DHT22;56411;52.964;10.540;2022-07-01T06:20:58;16.40;99.90
16102;DHT22;56411;52.964;10.540;2022-07-01T06:23:25;16.40;99.90
16102;DHT22;56411;52.964;10.540;2022-07-01T06:25:53;16.40;99.90
16102;DHT22;56411;52.964;10.540;2022-07-01T06:28:20;16.30;99.90
16102;DHT22;56411;52.964;10.540;2022-07-01T06:30:47;16.30;99.90
16102;DHT22;56411;52.964;10.540;2022-07-01T06:33:14;16.30;99.90
16102;DHT22;56411;52.964;10.540;2022-07-01T06:35:41;16.30;99.90
16102;DHT22;56411;52.964;10.540;2022-07-01T06:38:10;16.20;99.90
16102;DHT22;56411;52.964;10.540;2022-07-01T06:40:37;16.20;99.90
16102;DHT22;56411;52.964;10.540;2022-07-01T06:43:06;16.10;99.90
16102;DHT22;56411;52.964;10.540;2022-07-01T06:45:32;16.00;99.90
16102;DHT22;56411;52.964;10.540;2022-07-01T06:47:59;15.90;99.90
16102;DHT22;56411;52.964;10.540;2022-07-01T06:50:28;15.90;99.90
16102;DHT22;56411;52.964;10.540;2022-07-01T06:52:55;15.80;99.90
16102;DHT22;56411;52.964;10.540;2022-07-01T06:55:22;15.80;99.90
16102;DHT22;56411;52.964;10.540;2022-07-01T06:57:50;15.70;99.90
16102;DHT22;56411;52.964;10.540;2022-07-01T07:00:19;15.60;99.90
16102;DHT22;56411;52.964;10.540;2022-07-01T07:02:46;15.50;99.90
16102;DHT22;56411;52.964;10.540;2022-07-01T07:05:13;15.60;99.90
16102;DHT22;56411;52.964;10.540;2022-07-01T07:07:40;15.60;99.90
16102;DHT22;56411;52.964;10.540;2022-07-01T07:10:08;15.70;99.90
16102;DHT22;56411;52.964;10.540;2022-07-01T07:12:35;15.70;99.90
16102;DHT22;56411;52.964;10.540;2022-07-01T07:15:02;15.80;99.90
16102;DHT22;56411;52.964;10.540;2022-07-01T07:17:30;15.60;99.90
16102;DHT22;56411;52.964;10.540;2022-07-01T07:19:57;15.60;99.90
16102;DHT22;56411;52.964;10.540;2022-07-01T07:22:24;15.60;99.90
16102;DHT22;56411;52.964;10.540;2022-07-01T07:24:51;15.50;99.90
16102;DHT22;56411;52.964;10.540;2022-07-01T07:27:19;15.50;99.90
16102;DHT22;56411;52.964;10.540;2022-07-01T07:29:46;15.60;99.90
16102;DHT22;56411;52.964;10.540;2022-07-01T07:32:13;15.60;99.90
16102;DHT22;56411;52.964;10.540;2022-07-01T07:34:41;15.70;99.90
16102;DHT22;56411;52.964;10.540;2022-07-01T07:37:08;15.80;99.90
16102;DHT22;56411;52.964;10.540;2022-07-01T07:39:35;15.90;99.90
16102;DHT22;56411;52.964;10.540;2022-07-01T07:42:03;16.00;99.90
16102;DHT22;56411;52.964;10.540;2022-07-01T07:44:31;16.10;99.90
16102;DHT22;56411;52.964;10.540;2022-07-01T07:46:58;16.00;99.90
16102;DHT22;56411;52.964;10.540;2022-07-01T07:49:25;16.00;99.90
16102;DHT22;56411;52.964;10.540;2022-07-01T07:51:53;16.10;99.90
16102;DHT22;56411;52.964;10.540;2022-07-01T07:54:20;16.00;99.90
16102;DHT22;56411;52.964;10.540;2022-07-01T07:56:47;16.00;99.90
16102;DHT22;56411;52.964;10.540;2022-07-01T07:59:14;16.10;99.90
16102;DHT22;56411;52.964;10.540;2022-07-01T08:01:41;16.20;99.90
16102;DHT22;56411;52.964;10.540;2022-07-01T08:04:08;16.20;99.90
16102;DHT22;56411;52.964;10.540;2022-07-01T08:06:35;16.10;99.90
16102;DHT22;56411;52.964;10.540;2022-07-01T08:09:04;16.10;99.90
16102;DHT22;56411;52.964;10.540;2022-07-01T08:11:31;16.20;99.90
16102;DHT22;56411;52.964;10.540;2022-07-01T08:13:58;16.10;99.90
16102;DHT22;56411;52.964;10.540;2022-07-01T08:16:25;16.00;99.90
16102;DHT22;56411;52.964;10.540;2022-07-01T08:18:52;16.00;99.90
16102;DHT22;56411;52.964;10.540;2022-07-01T08:21:19;16.00;99.90
16102;DHT22;56411;52.964;10.540;2022-07-01T08:23:46;15.90;99.90
16102;DHT22;56411;52.964;10.540;2022-07-01T08:26:15;15.90;99.90
16102;DHT22;56411;52.964;10.540;2022-07-01T08:28:43;15.90;99.90
16102;DHT22;56411;52.964;10.540;2022-07-01T08:31:10;15.90;99.90
16102;DHT22;56411;52.964;10.540;2022-07-01T08:33:38;15.90;99.90
16102;DHT22;56411;52.964;10.540;2022-07-01T08:36:05;15.90;99.90
16102;DHT22;56411;52.964;10.540;2022-07-01T08:38:36;15.90;99.90
16102;DHT22;56411;52.964;10.540;2022-07-01T08:41:05;16.00;99.90
16102;DHT22;56411;52.964;10.540;2022-07-01T08:43:34;16.10;99.90
16102;DHT22;56411;52.964;10.540;2022-07-01T08:46:02;16.10;99.90
16102;DHT22;56411;52.964;10.540;2022-07-01T08:48:29;16.10;99.90
16102;DHT22;56411;52.964;10.540;2022-07-01T08:50:57;16.00;99.90
16102;DHT22;56411;52.964;10.540;2022-07-01T08:53:24;15.90;99.90
16102;DHT22;56411;52.964;10.540;2022-07-01T08:55:53;15.90;99.90
16102;DHT22;56411;52.964;10.540;2022-07-01T08:58:39;16.00;99.90
16102;DHT22;56411;52.964;10.540;2022-07-01T09:01:14;16.00;99.90
16102;DHT22;56411;52.964;10.540;2022-07-01T09:03:42;15.90;99.90
16102;DHT22;56411;52.964;10.540;2022-07-01T09:06:14;15.90;99.90
16102;DHT22;56411;52.964;10.540;2022-07-01T09:08:41;15.80;99.90
16102;DHT22;56411;52.964;10.540;2022-07-01T09:11:12;15.80;99.90
16102;DHT22;56411;52.964;10.540;2022-07-01T09:13:41;15.70;99.90
16102;DHT22;56411;52.964;10.540;2022-07-01T09:16:12;15.70;99.90
16102;DHT22;56411;52.964;10.540;2022-07-01T09:18:40;15.70;99.90
16102;DHT22;56411;52.964;10.540;2022-07-01T09:21:08;15.70;99.90
16102;DHT22;56411;52.964;10.540;2022-07-01T09:23:40;15.70;99.90
16102;DHT22;56411;52.964;10.540;2022-07-01T09:26:07;15.60;99.90
16102;DHT22;56411;52.964;10.540;2022-07-01T09:28:34;15.60;99.90
16102;DHT22;56411;52.964;10.540;2022-07-01T09:31:02;15.60;99.90
16102;DHT22;56411;52.964;10.540;2022-07-01T09:33:29;15.70;99.90
16102;DHT22;56411;52.964;10.540;2022-07-01T09:35:57;15.70;99.90
16102;DHT22;56411;52.964;10.540;2022-07-01T09:38:25;15.70;99.90
16102;DHT22;56411;52.964;10.540;2022-07-01T09:40:53;15.60;99.90
16102;DHT22;56411;52.964;10.540;2022-07-01T09:43:24;15.60;99.90
16102;DHT22;56411;52.964;10.540;2022-07-01T09:45:58;15.60;99.90
16102;DHT22;56411;52.964;10.540;2022-07-01T09:48:42;15.50;99.90
16102;DHT22;56411;52.964;10.540;2022-07-01T09:51:10;15.50;99.90
16102;DHT22;56411;52.964;10.540;2022-07-01T09:53:38;15.50;99.90
16102;DHT22;56411;52.964;10.540;2022-07-01T09:56:05;15.60;99.90
16102;DHT22;56411;52.964;10.540;2022-07-01T09:58:32;15.50;99.90
16102;DHT22;56411;52.964;10.540;2022-07-01T10:01:00;15.40;99.90
16102;DHT22;56411;52.964;10.540;2022-07-01T10:03:31;15.40;99.90
16102;DHT22;56411;52.964;10.540;2022-07-01T10:06:13;15.40;99.90
16102;DHT22;56411;52.964;10.540;2022-07-01T10:08:55;15.30;99.90
16102;DHT22;56411;52.964;10.540;2022-07-01T10:14:29;15.40;99.90
16102;DHT22;56411;52.964;10.540;2022-07-01T10:16:57;15.30;99.90
16102;DHT22;56411;52.964;10.540;2022-07-01T10:19:27;15.40;99.90
16102;DHT22;56411;52.964;10.540;2022-07-01T10:21:55;15.30;99.90
16102;DHT22;56411;52.964;10.540;2022-07-01T10:24:25;15.30;99.90
16102;DHT22;56411;52.964;10.540;2022-07-01T10:26:58;15.20;99.90
16102;DHT22;56411;52.964;10.540;2022-07-01T10:29:30;15.20;99.90
16102;DHT22;56411;52.964;10.540;2022-07-01T10:32:02;15.30;99.90
16102;DHT22;56411;52.964;10.540;2022-07-01T10:34:41;15.30;99.90
16102;DHT22;56411;52.964;10.540;2022-07-01T10:37:10;15.20;99.90
16102;DHT22;56411;52.964;10.540;2022-07-01T10:39:55;15.20;99.90
16102;DHT22;56411;52.964;10.540;2022-07-01T10:42:28;15.20;99.90
16102;DHT22;56411;52.964;10.540;2022-07-01T10:45:07;15.20;99.90
16102;DHT22;56411;52.964;10.540;2022-07-01T10:47:35;15.30;99.90
16102;DHT22;56411;52.964;10.540;2022-07-01T10:50:08;15.30;99.90
16102;DHT22;56411;52.964;10.540;2022-07-01T10:52:36;15.40;99.90
16102;DHT22;56411;52.964;10.540;2022-07-01T10:55:05;15.30;99.90
16102;DHT22;56411;52.964;10.540;2022-07-01T10:57:36;15.20;99.90
16102;DHT22;56411;52.964;10.540;2022-07-01T11:00:30;15.20;99.90
16102;DHT22;56411;52.964;10.540;2022-07-01T11:03:11;15.20;99.90
16102;DHT22;56411;52.964;10.540;2022-07-01T11:05:40;15.20;99.90
16102;DHT22;56411;52.964;10.540;2022-07-01T11:08:08;15.30;99.90
16102;DHT22;56411;52.964;10.540;2022-07-01T11:10:35;15.30;99.90
16102;DHT22;56411;52.964;10.540;2022-07-01T11:13:03;15.20;99.90
16102;DHT22;56411;52.964;10.540;2022-07-01T11:15:31;15.20;99.90
16102;DHT22;56411;52.964;10.540;2022-07-01T11:18:00;15.20;99.90
16102;DHT22;56411;52.964;10.540;2022-07-01T11:20:30;15.20;99.90
16102;DHT22;56411;52.964;10.540;2022-07-01T11:22:59;15.30;99.90
16102;DHT22;56411;52.964;10.540;2022-07-01T11:25:26;15.20;99.90
16102;DHT22;56411;52.964;10.540;2022-07-01T11:27:53;15.20;99.90
16102;DHT22;56411;52.964;10.540;2022-07-01T11:30:21;15.20;99.90
16102;DHT22;56411;52.964;10.540;2022-07-01T11:32:50;15.30;99.90
16102;DHT22;56411;52.964;10.540;2022-07-01T11:35:20;15.40;99.90
16102;DHT22;56411;52.964;10.540;2022-07-01T11:38:08;15.50;99.90
16102;DHT22;56411;52.964;10.540;2022-07-01T11:40:54;15.60;99.90
16102;DHT22;56411;52.964;10.540;2022-07-01T11:43:23;15.70;99.90
16102;DHT22;56411;52.964;10.540;2022-07-01T11:45:52;15.70;99.90
16102;DHT22;56411;52.964;10.540;2022-07-01T11:48:29;15.70;99.90
16102;DHT22;56411;52.964;10.540;2022-07-01T11:50:56;15.70;99.90
16102;DHT22;56411;52.964;10.540;2022-07-01T11:53:25;15.70;99.90
16102;DHT22;56411;52.964;10.540;2022-07-01T11:55:52;15.80;99.90
16102;DHT22;56411;52.964;10.540;2022-07-01T11:58:19;15.80;99.90
16102;DHT22;56411;52.964;10.540;2022-07-01T12:00:47;15.90;99.90
16102;DHT22;56411;52.964;10.540;2022-07-01T12:03:29;15.80;99.90
16102;DHT22;56411;52.964;10.540;2022-07-01T12:05:56;15.80;99.90
16102;DHT22;56411;52.964;10.540;2022-07-01T12:08:25;15.90;99.90
16102;DHT22;56411;52.964;10.540;2022-07-01T12:10:52;15.90;99.90
16102;DHT22;56411;52.964;10.540;2022-07-01T12:13:24;15.90;99.90
16102;DHT22;56411;52.964;10.540;2022-07-01T12:15:51;16.00;99.90
16102;DHT22;56411;52.964;10.540;2022-07-01T12:18:18;16.10;99.90
16102;DHT22;56411;52.964;10.540;2022-07-01T12:20:49;16.10;99.90
16102;DHT22;56411;52.964;10.540;2022-07-01T12:23:17;16.10;99.90
16102;DHT22;56411;52.964;10.540;2022-07-01T12:25:49;16.10;99.90
16102;DHT22;56411;52.964;10.540;2022-07-01T12:28:31;16.00;99.90
16102;DHT22;56411;52.964;10.540;2022-07-01T12:31:02;16.00;99.90
16102;DHT22;56411;52.964;10.540;2022-07-01T12:33:30;16.10;99.90
16102;DHT22;56411;52.964;10.540;2022-07-01T12:35:57;16.10;99.90
16102;DHT22;56411;52.964;10.540;2022-07-01T12:38:24;16.10;99.90
16102;DHT22;56411;52.964;10.540;2022-07-01T12:40:52;16.10;99.90
16102;DHT22;56411;52.964;10.540;2022-07-01T12:43:27;16.30;99.90
16102;DHT22;56411;52.964;10.540;2022-07-01T12:45:56;16.50;99.90
16102;DHT22;56411;52.964;10.540;2022-07-01T12:48:23;16.80;99.90
16102;DHT22;56411;52.964;10.540;2022-07-01T12:50:55;17.20;99.90
16102;DHT22;56411;52.964;10.540;2022-07-01T12:53:24;17.70;99.90
16102;DHT22;56411;52.964;10.540;2022-07-01T12:55:53;18.10;99.90
16102;DHT22;56411;52.964;10.540;2022-07-01T12:58:22;18.40;99.90
16102;DHT22;56411;52.964;10.540;2022-07-01T13:00:51;18.30;99.90
16102;DHT22;56411;52.964;10.540;2022-07-01T13:03:19;18.10;99.90
16102;DHT22;56411;52.964;10.540;2022-07-01T13:05:48;17.70;99.90
16102;DHT22;56411;52.964;10.540;2022-07-01T13:08:15;17.50;99.90
16102;DHT22;56411;52.964;10.540;2022-07-01T13:10:44;17.40;99.90
16102;DHT22;56411;52.964;10.540;2022-07-01T13:13:13;17.30;99.90
16102;DHT22;56411;52.964;10.540;2022-07-01T13:15:41;17.40;99.90
16102;DHT22;56411;52.964;10.540;2022-07-01T13:18:09;17.60;99.90
16102;DHT22;56411;52.964;10.540;2022-07-01T13:20:40;18.00;99.90
16102;DHT22;56411;52.964;10.540;2022-07-01T13:23:10;18.60;99.90
16102;DHT22;56411;52.964;10.540;2022-07-01T13:25:40;19.00;99.90
16102;DHT22;56411;52.964;10.540;2022-07-01T13:28:12;19.50;99.90
16102;DHT22;56411;52.964;10.540;2022-07-01T13:30:39;19.80;99.90
16102;DHT22;56411;52.964;10.540;2022-07-01T13:33:11;19.80;99.90
16102;DHT22;56411;52.964;10.540;2022-07-01T13:35:38;19.80;99.90
16102;DHT22;56411;52.964;10.540;2022-07-01T13:38:14;20.40;99.90
16102;DHT22;56411;52.964;10.540;2022-07-01T13:40:44;20.80;99.90
16102;DHT22;56411;52.964;10.540;2022-07-01T13:43:15;20.90;99.90
16102;DHT22;56411;52.964;10.540;2022-07-01T13:45:45;20.90;99.90
16102;DHT22;56411;52.964;10.540;2022-07-01T13:48:12;20.70;99.90
16102;DHT22;56411;52.964;10.540;2022-07-01T13:50:39;20.00;99.90
16102;DHT22;56411;52.964;10.540;2022-07-01T13:53:08;19.80;99.90
16102;DHT22;56411;52.964;10.540;2022-07-01T13:55:38;19.70;99.90
16102;DHT22;56411;52.964;10.540;2022-07-01T13:58:12;19.50;99.90
16102;DHT22;56411;52.964;10.540;2022-07-01T14:00:45;19.20;99.90
16102;DHT22;56411;52.964;10.540;2022-07-01T14:03:12;18.90;99.90
16102;DHT22;56411;52.964;10.540;2022-07-01T14:05:42;18.50;99.90
16102;DHT22;56411;52.964;10.540;2022-07-01T14:08:11;18.30;99.90
16102;DHT22;56411;52.964;10.540;2022-07-01T14:10:43;18.10;99.90
16102;DHT22;56411;52.964;10.540;2022-07-01T14:13:11;18.00;99.90
16102;DHT22;56411;52.964;10.540;2022-07-01T14:15:38;17.90;99.90
16102;DHT22;56411;52.964;10.540;2022-07-01T14:18:12;17.80;99.90
16102;DHT22;56411;52.964;10.540;2022-07-01T14:20:42;17.60;99.90
16102;DHT22;56411;52.964;10.540;2022-07-01T14:23:15;17.50;99.90
16102;DHT22;56411;52.964;10.540;2022-07-01T14:25:42;17.50;99.90
16102;DHT22;56411;52.964;10.540;2022-07-01T14:28:15;17.30;99.90
16102;DHT22;56411;52.964;10.540;2022-07-01T14:30:42;17.30;99.90
16102;DHT22;56411;52.964;10.540;2022-07-01T14:33:11;17.20;99.90
16102;DHT22;56411;52.964;10.540;2022-07-01T14:35:38;17.20;99.90
16102;DHT22;56411;52.964;10.540;2022-07-01T14:38:05;17.20;99.90
16102;DHT22;56411;52.964;10.540;2022-07-01T14:40:32;17.20;99.90
16102;DHT22;56411;52.964;10.540;2022-07-01T14:42:59;17.20;99.90
16102;DHT22;56411;52.964;10.540;2022-07-01T14:45:27;17.10;99.90
16102;DHT22;56411;52.964;10.540;2022-07-01T14:47:55;17.20;99.90
16102;DHT22;56411;52.964;10.540;2022-07-01T14:50:24;17.10;99.90
16102;DHT22;56411;52.964;10.540;2022-07-01T14:52:51;17.10;99.90
16102;DHT22;56411;52.964;10.540;2022-07-01T14:55:21;17.10;99.90
16102;DHT22;56411;52.964;10.540;2022-07-01T14:57:48;17.30;99.90
16102;DHT22;56411;52.964;10.540;2022-07-01T15:00:15;17.30;99.90
16102;DHT22;56411;52.964;10.540;2022-07-01T15:02:42;17.30;99.90
16102;DHT22;56411;52.964;10.540;2022-07-01T15:05:09;17.20;99.90
16102;DHT22;56411;52.964;10.540;2022-07-01T15:07:38;17.30;99.90
16102;DHT22;56411;52.964;10.540;2022-07-01T15:10:06;17.10;99.90
16102;DHT22;56411;52.964;10.540;2022-07-01T15:12:33;17.10;99.90
16102;DHT22;56411;52.964;10.540;2022-07-01T15:15:00;17.10;99.90
16102;DHT22;56411;52.964;10.540;2022-07-01T15:17:27;17.00;99.90
16102;DHT22;56411;52.964;10.540;2022-07-01T15:19:54;17.00;99.90
16102;DHT22;56411;52.964;10.540;2022-07-01T15:22:21;17.00;99.90
16102;DHT22;56411;52.964;10.540;2022-07-01T15:24:51;17.00;99.90
16102;DHT22;56411;52.964;10.540;2022-07-01T15:27:18;17.10;99.90